Tiempo atmosférico en la estación meteorológica de Valdemorillo, Madrid (884 m.)



Fecha
DESCASC
Temp. máxima en grados centígrados (hora)
DESCASC
Temp. mínima en grados centígrados (hora)
DESCASC
Temp. media en grados centígrados
DESCASC
Racha de viento máxima en m/sg (hora)
DESCASC
Velocidad máxima media en intervalos de 10 minutos(hora)
DESCASC
Precipitaciones diarias en mm
DESCASC
Precipitaciones de 00:00 a 06:00 en mm
DESCASC
Precipitaciones de 06:00 a 12:00 en mm
DESCASC
Precipitaciones de 12:00 a 18:00 en mm
DESCASC
Precipitaciones de 18:00 a 24:00 en mm
DESCASC
24-09-2020 21.6 (16:40) 14.4 (23:59) 18 12.22 (18:30) 6.39 (18:00) 0.8 0 0.8 0 0
23-09-2020 22.6 (15:50) 14.3 (00:00) 18.5 10.56 (13:40) 6.39 (12:50) 0 0 0 0 0
22-09-2020 23.5 (16:20) 12.3 (00:00) 17.9 8.61 (18:20) 4.44 (18:40) 0 0 0 0 0
21-09-2020 23.3 (16:50) 12.4 (00:00) 17.8 7.78 (15:20) 3.61 (17:30) 0 0 0 0 0
20-09-2020 -- (--) -- (--) -- -- (--) -- (--) -- 0 -- 0.2 0
19-09-2020 16.6 (17:50) 13.2 (00:00) 14.9 10.28 (12:30) 6.11 (11:50) 11.2 8.8 1.4 1 0
18-09-2020 19.8 (13:40) 13.7 (00:00) 16.7 13.61 (17:50) 7.22 (17:50) 24.4 3.8 0 16.2 4.4
17-09-2020 23.7 (16:50) 16 (00:00) 19.9 9.17 (16:30) 5.28 (00:50) 11 1.6 1 0 8.4
16-09-2020 29.6 (17:30) 16.9 (00:00) 23.3 8.61 (22:10) 4.72 (23:59) 0.4 0 0 0 0.4
15-09-2020 28.1 (17:10) 17.2 (00:00) 22.7 7.5 (16:10) 4.72 (16:10) 0.2 0.2 0 0 0
14-09-2020 28.6 (17:20) 18.9 (00:00) 23.8 8.89 (20:50) 3.61 (21:00) 0 0 0 0 0
13-09-2020 30.6 (17:00) 18.2 (00:00) 24.4 7.78 (13:20) 4.17 (02:00) 0 0 0 0 0
12-09-2020 31.9 (17:10) 16.7 (00:00) 24.3 8.33 (02:20) 3.61 (02:00) 0 0 0 0 0
11-09-2020 31.3 (16:30) 16.8 (00:00) 24 7.22 (18:00) 3.89 (15:20) 0 0 0 0 0
10-09-2020 29.8 (17:00) 15.7 (00:00) 22.7 7.78 (11:30) 3.61 (00:50) 0 0 0 0 0
09-09-2020 27.8 (17:10) 14 (00:00) 20.9 6.67 (17:20) 3.61 (17:00) 0 0 0 0 0
08-09-2020 24.8 (17:10) 10.8 (00:00) 17.8 8.61 (00:10) 4.17 (00:50) 0 0 0 0 0
07-09-2020 26.5 (17:10) 12.8 (08:20) 19.7 8.33 (15:20) 5 (00:10) 0 0 0 0 0
06-09-2020 32.7 (17:00) 17.6 (00:00) 25.2 11.11 (23:20) 6.67 (23:20) 0 0 0 0 0
05-09-2020 32.2 (16:50) 16.1 (00:00) 24.2 5.83 (17:10) 3.06 (16:50) 0 0 0 0 0
04-09-2020 31.7 (16:50) 16.8 (00:00) 24.3 6.39 (02:20) 2.78 (17:10) 0 0 0 0 0
03-09-2020 30.9 (17:10) 14.7 (00:00) 22.8 8.33 (15:40) 3.89 (15:40) 0 0 0 0 0
02-09-2020 28.9 (16:40) 13.5 (00:00) 21.2 8.33 (02:30) 4.44 (02:10) 0 0 0 0 0
01-09-2020 27.4 (16:50) 14.8 (00:00) 21.1 6.39 (17:20) 3.33 (16:30) 0 0 0 0 0
31-08-2020 24.2 (17:20) 9.1 (00:00) 16.7 6.94 (02:10) 3.61 (02:10) 0 0 0 0 0
30-08-2020 22.8 (17:00) 9.3 (00:00) 16 12.5 (15:10) 5.56 (03:00) 0 0 0 0 0
29-08-2020 21.1 (17:00) 12.7 (00:00) 16.9 12.22 (05:30) 7.22 (09:50) 0 0 0 0 0
28-08-2020 30.5 (15:40) 19.8 (00:00) 25.1 14.17 (23:00) 6.67 (22:50) 0 0 0 0 0
27-08-2020 36.3 (16:50) 20.8 (00:00) 28.5 9.72 (23:40) 5.28 (23:40) 0 0 0 0 0
26-08-2020 35.9 (17:00) 20.3 (00:00) 28.1 10 (16:20) 5.28 (16:20) 0 0 0 0 0

Gráficas

Temp. máximas Temp. mínimas Temp. medias Precipitaciones Rachas de viento máximas Velocidades máximas media en intervalos de 10 minutos

Datos horarios

Fecha y hora oficial Temperatura (ºC) Velocidad del viento (km/h) Dirección del viento Racha (km/h) Dirección de racha Precipitación (mm) Presión (hPa) Tendencia (hPa) Humedad (%)
2020-09-24 23:00:00 15.3 15 Noroeste 32 Noroeste 0 -- -- 56
2020-09-24 22:00:00 16.5 12 Noroeste 27 Noroeste 0 -- -- 53
2020-09-24 21:00:00 17.5 10 Noroeste 40 Oeste 0 -- -- 50
2020-09-24 20:00:00 18.7 18 Noroeste 41 Noroeste 0 -- -- 44
2020-09-24 19:00:00 20.4 21 Noroeste 44 Noroeste 0 -- -- 45
2020-09-24 18:00:00 21.3 23 Noroeste 41 Oeste 0 -- -- 44
2020-09-24 17:00:00 21.5 15 Oeste 35 Sudoeste 0 -- -- 58
2020-09-24 16:00:00 21 14 Oeste 31 Sudoeste 0 -- -- 64
2020-09-24 15:00:00 20.6 15 Oeste 34 Sudoeste 0 -- -- 66
2020-09-24 14:00:00 20.5 18 Oeste 32 Oeste 0 -- -- 69
2020-09-24 13:00:00 19.3 16 Oeste 29 Sudoeste 0 -- -- 74
2020-09-24 12:00:00 17.4 15 Sudoeste 30 Oeste 0 -- -- 87
2020-09-24 11:00:00 16 14 Sudoeste 25 Sudoeste 0 -- -- 96
2020-09-24 10:00:00 15.6 6 Oeste 17 Oeste 0.2 -- -- 97
2020-09-24 09:00:00 15.2 8 Sudoeste 13 Oeste 0.6 -- -- 97
2020-09-24 08:00:00 15.2 6 Sudoeste 15 Sudoeste 0 -- -- 97
2020-09-24 07:00:00 15 6 Sudoeste 10 Sudoeste 0 -- -- 95
2020-09-24 06:00:00 15.2 4 Oeste 10 Oeste 0 -- -- 94
2020-09-24 05:00:00 15.2 2 Sudoeste 10 Noroeste 0 -- -- 89
2020-09-24 04:00:00 15.1 4 Oeste 12 Oeste 0 -- -- 88
2020-09-24 03:00:00 15.5 8 Sudoeste 15 Sudoeste 0 -- -- 89
2020-09-24 02:00:00 16.1 3 Oeste 13 Oeste 0 -- -- 78
2020-09-24 01:00:00 16.8 7 Oeste 24 Sudoeste 0 -- -- 76
2020-09-24 00:00:00 17.4 10 Oeste 26 Noroeste 0 -- -- 70
2020-09-23 23:00:00 17.4 6 Noroeste 15 Oeste 0 -- -- 74
2020-09-23 22:00:00 17 4 Sudoeste 12 Oeste 0 -- -- 79
2020-09-23 21:00:00 18.2 5 Sudoeste 17 Oeste 0 -- -- 73
2020-09-23 20:00:00 19.7 5 Oeste 12 Noroeste 0 -- -- 68
2020-09-23 19:00:00 20.2 8 Oeste 26 Oeste 0 -- -- 64
2020-09-23 18:00:00 21.3 12 Oeste 23 Oeste 0 -- -- 58
2020-09-23 17:00:00 20.7 6 Norte 24 Oeste 0 -- -- 63
2020-09-23 16:00:00 22.1 13 Sudoeste 34 Sudoeste 0 -- -- 55
2020-09-23 15:00:00 22.2 22 Sudoeste 36 Sudoeste 0 -- -- 55
2020-09-23 14:00:00 21.6 19 Sudoeste 38 Sudoeste 0 -- -- 55
2020-09-23 13:00:00 20.2 20 Sudoeste 38 Sudoeste 0 -- -- 60
2020-09-23 12:00:00 18.8 16 Sudoeste 29 Oeste 0 -- -- 66
2020-09-23 11:00:00 16.4 11 Sudoeste 19 Sudoeste 0 -- -- 86
2020-09-23 10:00:00 15.5 8 Oeste 14 Sudoeste 0 -- -- 89
2020-09-23 09:00:00 14.4 9 Sudoeste 12 Sudoeste 0 -- -- 91
2020-09-23 08:00:00 14.5 4 Sudoeste 9 Sudoeste 0 -- -- 85
2020-09-23 07:00:00 14.7 4 Sudoeste 9 Sudoeste 0 -- -- 82
2020-09-23 06:00:00 15.1 5 Sudoeste 8 Sudoeste 0 -- -- 77
2020-09-23 05:00:00 14.9 2 Sudoeste 12 Sudoeste 0 -- -- 78
2020-09-23 04:00:00 15 6 Sudoeste 11 Sudoeste 0 -- -- 77
2020-09-23 03:00:00 15 5 Sudoeste 8 Sudoeste 0 -- -- 72
2020-09-23 02:00:00 15 2 Norte 4 Norte 0 -- -- 72
2020-09-23 01:00:00 15.9 2 Noroeste 8 Oeste 0 -- -- 67
2020-09-23 00:00:00 15.9 2 Oeste 4 Noroeste 0 -- -- 68
2020-09-22 23:00:00 16.9 0 Calma 6 Norte 0 -- -- 65
2020-09-22 22:00:00 17.8 2 Oeste 9 Noroeste 0 -- -- 66
2020-09-22 21:00:00 18.7 5 Oeste 16 Sudoeste 0 -- -- 63
2020-09-22 20:00:00 19.8 9 Oeste 21 Oeste 0 -- -- 59
2020-09-22 19:00:00 21.5 13 Sudoeste 31 Sudoeste 0 -- -- 53
2020-09-22 18:00:00 21.1 13 Sudoeste 25 Sudoeste 0 -- -- 54
2020-09-22 17:00:00 22.1 13 Sudoeste 26 Sudoeste 0 -- -- 50
2020-09-22 16:00:00 23.3 12 Oeste 29 Sudoeste 0 -- -- 43
2020-09-22 15:00:00 22.4 15 Sudoeste 27 Sudoeste 0 -- -- 45
2020-09-22 14:00:00 21.7 10 Sudoeste 24 Sudoeste 0 -- -- 47
2020-09-22 13:00:00 19.8 12 Sudoeste 20 Sudoeste 0 -- -- 53
2020-09-22 12:00:00 18.4 8 Sudoeste 14 Sur 0 -- -- 58
2020-09-22 11:00:00 17.1 6 Sudoeste 12 Sudoeste 0 -- -- 65
2020-09-22 10:00:00 15.1 3 Oeste 5 Oeste 0 -- -- 67
2020-09-22 09:00:00 12.7 0 Calma 4 Norte 0 -- -- 72
2020-09-22 08:00:00 12.8 2 Nordeste 12 Nordeste 0 -- -- 70
2020-09-22 07:00:00 13.2 6 Nordeste 11 Nordeste 0 -- -- 69
2020-09-22 06:00:00 13.5 3 Nordeste 6 Norte 0 -- -- 69
2020-09-22 05:00:00 14 3 Norte 10 Nordeste 0 -- -- 67
2020-09-22 04:00:00 14.6 6 Nordeste 14 Norte 0 -- -- 64
2020-09-22 03:00:00 14.5 5 Este 13 Sudeste 0 -- -- 65
2020-09-22 02:00:00 15.7 7 Norte 15 Nordeste 0 -- -- 60
2020-09-22 01:00:00 16.2 10 Norte 17 Nordeste 0 -- -- 59
2020-09-22 00:00:00 16.6 9 Norte 19 Nordeste 0 -- -- 58
2020-09-21 23:00:00 16.9 9 Norte 18 Nordeste 0 -- -- 60
2020-09-21 22:00:00 17.2 5 Nordeste 9 Nordeste 0 -- -- 69
2020-09-21 21:00:00 18.3 5 Sudoeste 16 Sudoeste 0 -- -- 61
2020-09-21 20:00:00 19.9 9 Sudoeste 22 Sudoeste 0 -- -- 56
2020-09-21 19:00:00 21.4 12 Sudoeste 23 Sudoeste 0 -- -- 51
2020-09-21 18:00:00 22.4 10 Sudoeste 23 Sudoeste 0 -- -- 47
2020-09-21 17:00:00 23.3 11 Oeste 23 Sudoeste 0 -- -- 46
2020-09-21 16:00:00 23 10 Sudoeste 28 Sudoeste 0 -- -- 47
2020-09-21 15:00:00 22.4 7 Oeste 21 Sudoeste 0 -- -- 50
2020-09-21 14:00:00 20.9 5 Sudoeste 17 Sur 0 -- -- 56
2020-09-21 13:00:00 20 7 Sur 15 Sudoeste 0 -- -- 60
2020-09-21 12:00:00 18.8 9 Sudoeste 15 Sudoeste 0 -- -- 65
2020-09-21 11:00:00 17.7 6 Sur 10 Sudoeste 0 -- -- 72
2020-09-21 10:00:00 15.4 0 Calma 4 Nordeste 0 -- -- 74
2020-09-21 09:00:00 12.7 0 Calma 5 Nordeste 0 -- -- 87
2020-09-21 08:00:00 13.3 2 Norte 12 Norte 0 -- -- 79
2020-09-21 07:00:00 13.7 4 Norte 11 Norte 0 -- -- 80
2020-09-21 06:00:00 13.6 5 Norte 12 Nordeste 0 -- -- 81
2020-09-21 05:00:00 13.7 4 Norte 11 Norte 0 -- -- 81
2020-09-21 04:00:00 13.7 3 Nordeste 6 Nordeste 0 -- -- 81
2020-09-21 03:00:00 15 2 Sudoeste 21 Noroeste 0 -- -- 76
2020-09-21 02:00:00 14.8 3 Noroeste 14 Noroeste 0 -- -- 80
2020-09-21 01:00:00 16.1 6 Oeste 13 Oeste 0 -- -- 74
2020-09-21 00:00:00 16.9 5 Norte 18 Noroeste 0 -- -- 72
2020-09-20 23:00:00 -- -- -- -- -- -- -- -- --
2020-09-20 22:00:00 -- -- -- -- -- -- -- -- --
2020-09-20 21:00:00 -- -- -- -- -- -- -- -- --
2020-09-20 20:00:00 -- -- -- -- -- -- -- -- --
2020-09-20 19:00:00 -- -- -- -- -- -- -- -- --
2020-09-20 18:00:00 -- -- -- -- -- -- -- -- --
2020-09-20 17:00:00 -- -- -- -- -- -- -- -- --
2020-09-20 16:00:00 -- -- -- -- -- -- -- -- --
2020-09-20 15:00:00 -- -- -- -- -- -- -- -- --
2020-09-20 14:00:00 -- -- -- -- -- -- -- -- --
2020-09-20 13:00:00 -- -- -- -- -- -- -- -- --
2020-09-20 12:00:00 -- -- -- -- -- -- -- -- --
2020-09-20 11:00:00 15.4 8 Sudoeste 17 Sudoeste 0 -- -- 96
2020-09-20 10:00:00 14.5 8 Sudoeste 15 Sudoeste 0 -- -- 98
2020-09-20 09:00:00 14.1 5 Sudoeste 11 Oeste 0 -- -- 98
2020-09-20 08:00:00 14 4 Oeste 15 Oeste 0 -- -- 98
2020-09-20 07:00:00 13.7 6 Sudoeste 12 Sudoeste 0 -- -- 97
2020-09-20 06:00:00 14 8 Sudoeste 12 Sudoeste 0 -- -- 95
2020-09-20 05:00:00 14.2 5 Sudoeste 15 Sudoeste 0 -- -- 95
2020-09-20 04:00:00 14.7 7 Sudoeste 17 Sudoeste 0 -- -- 91
2020-09-20 03:00:00 14.7 6 Sudoeste 11 Sudoeste 0 -- -- 89
2020-09-20 02:00:00 14.8 5 Sudoeste 9 Sudoeste 0 -- -- 88
2020-09-20 01:00:00 14.9 4 Sudoeste 17 Sudoeste 0 -- -- 86
2020-09-20 00:00:00 14.9 6 Sudoeste 11 Sudoeste 0 -- -- 84
2020-09-19 23:00:00 15.1 2 Noroeste 4 Oeste 0 -- -- 87
2020-09-19 22:00:00 15 0 Calma 5 Oeste 0 -- -- 86
2020-09-19 21:00:00 15.2 2 Oeste 11 Oeste 0 -- -- 87
2020-09-19 20:00:00 15.9 9 Oeste 16 Oeste 0 -- -- 82
2020-09-19 19:00:00 16.4 9 Oeste 16 Oeste 0 -- -- 84
2020-09-19 18:00:00 16.5 10 Oeste 22 Sudoeste 0 -- -- 90
2020-09-19 17:00:00 16 15 Sudoeste 24 Sudoeste 0 -- -- 93
2020-09-19 16:00:00 15.1 10 Oeste 23 Oeste 0 -- -- 96
2020-09-19 15:00:00 14.8 12 Oeste 27 Sudoeste 1 -- -- 98
2020-09-19 14:00:00 14.5 14 Sudoeste 36 Oeste 0 -- -- 99
2020-09-19 13:00:00 14.3 18 Sudoeste 37 Sudoeste 0 -- -- 99
2020-09-19 12:00:00 13.9 21 Sudoeste 35 Sudoeste 0.4 -- -- 99
2020-09-19 11:00:00 13.6 18 Sudoeste 34 Sudoeste 0.4 -- -- 99
2020-09-19 10:00:00 13.3 17 Sudoeste 28 Sudoeste 0.2 -- -- 99
2020-09-19 09:00:00 13.3 12 Sudoeste 30 Sur 0.2 -- -- 99
2020-09-19 08:00:00 13.2 11 Sudoeste 23 Sudoeste 0.2 -- -- 99
2020-09-19 07:00:00 13.2 10 Sur 21 Sur 0 -- -- 99
2020-09-19 06:00:00 13.3 9 Sur 27 Sur 0 -- -- 99
2020-09-19 05:00:00 13.4 11 Sudoeste 22 Sudoeste 1.4 -- -- 99
2020-09-19 04:00:00 13.5 11 Sudoeste 36 Sudoeste 1.6 -- -- 98
2020-09-19 03:00:00 13.7 14 Sudoeste 28 Sudoeste 0 -- -- 98
2020-09-19 02:00:00 13.8 17 Sudoeste 31 Sur 2 -- -- 98
2020-09-19 01:00:00 14.2 19 Sur 33 Sur 3.8 -- -- 97
2020-09-19 00:00:00 13.9 10 Sudeste 20 Este 2.8 -- -- 97
2020-09-18 23:00:00 13.9 9 Este 16 Este 0 -- -- 96
2020-09-18 22:00:00 13.7 6 Nordeste 12 Nordeste 0 -- -- 95
2020-09-18 21:00:00 13.8 4 Nordeste 9 Este 0 -- -- 95
2020-09-18 20:00:00 14.1 3 Este 10 Sudeste 0 -- -- 94
2020-09-18 19:00:00 14.7 5 Nordeste 13 Noroeste 1.6 -- -- 94
2020-09-18 18:00:00 13.8 14 Sudoeste 49 Sudoeste 6.8 -- -- 94
2020-09-18 17:00:00 16.2 0 Calma 19 Sur 0 -- -- 86
2020-09-18 16:00:00 16.3 9 Sur 22 Sudoeste 9.2 -- -- 89
2020-09-18 15:00:00 18.6 6 Sur 23 Sudoeste 0.2 -- -- 73
2020-09-18 14:00:00 19 14 Sur 23 Sudeste 0 -- -- 71
2020-09-18 13:00:00 18.6 9 Sur 18 Sur 0 -- -- 79
2020-09-18 12:00:00 16.5 5 Sudoeste 12 Sudoeste 0 -- -- 84
2020-09-18 11:00:00 15.1 7 Oeste 21 Oeste 0 -- -- 89
2020-09-18 10:00:00 15.6 9 Oeste 30 Sudoeste 0 -- -- 90
2020-09-18 09:00:00 15.9 6 Sudeste 13 Sudeste 0 -- -- 94
2020-09-18 08:00:00 16 2 Sudeste 9 Sur 0 -- -- 94
2020-09-18 07:00:00 16 0 Calma 18 Sudoeste 0 -- -- 93
2020-09-18 06:00:00 16.6 8 Sudeste 17 Sudeste 0 -- -- 96
2020-09-18 05:00:00 16.5 7 Este 15 Este 0.2 -- -- 96
2020-09-18 04:00:00 16.3 9 Este 18 Este 0 -- -- 96
2020-09-18 03:00:00 16.4 7 Este 18 Este 2.8 -- -- 95
2020-09-18 02:00:00 16.3 10 Este 20 Nordeste 0 -- -- 94
2020-09-18 01:00:00 16.5 5 Este 15 Nordeste 0.8 -- -- 92
2020-09-18 00:00:00 16.7 2 Nordeste 10 Este 0.2 -- -- 90
2020-09-17 23:00:00 16.9 3 Noroeste 13 Norte 6 -- -- 90
2020-09-17 22:00:00 17.5 10 Nordeste 17 Nordeste 0 -- -- 85
2020-09-17 21:00:00 18.5 6 Este 23 Este 2 -- -- 82
2020-09-17 20:00:00 20.9 6 Noroeste 23 Sudeste 0.2 -- -- 69
2020-09-17 19:00:00 22.9 8 Sudeste 20 Sudeste 0 -- -- 60
2020-09-17 18:00:00 23.4 11 Sur 26 Sur 0 -- -- 57
2020-09-17 17:00:00 23.7 14 Sudoeste 33 Sudoeste 0 -- -- 57
2020-09-17 16:00:00 23.2 19 Sur 30 Sur 0 -- -- 59
2020-09-17 15:00:00 22 9 Sur 25 Sudeste 0 -- -- 62
2020-09-17 14:00:00 23.1 10 Sur 21 Sudoeste 0 -- -- 60
2020-09-17 13:00:00 21.1 9 Sudeste 16 Sudeste 0 -- -- 71
2020-09-17 12:00:00 19.4 5 Nordeste 13 Nordeste 0 -- -- 80
2020-09-17 11:00:00 17.2 7 Nordeste 15 Nordeste 0 -- -- 89
2020-09-17 10:00:00 16.5 8 Nordeste 14 Norte 0 -- -- 91
2020-09-17 09:00:00 16.3 6 Nordeste 14 Nordeste 0 -- -- 92
2020-09-17 08:00:00 16.1 6 Nordeste 10 Norte 0.2 -- -- 92
2020-09-17 07:00:00 16.1 4 Sudoeste 15 Sudoeste 0.8 -- -- 90
2020-09-17 06:00:00 17.5 5 Sudeste 9 Sudeste 0 -- -- 79
2020-09-17 05:00:00 17.4 4 Este 6 Norte 0.2 -- -- 84
2020-09-17 04:00:00 17.9 3 Noroeste 15 Oeste 0.2 -- -- 78
2020-09-17 03:00:00 17.7 5 Este 8 Sudeste 0.2 -- -- 81
2020-09-17 02:00:00 18.3 2 Norte 21 Noroeste 1 -- -- 78
2020-09-17 01:00:00 19.3 14 Norte 32 Norte 0 -- -- 68
2020-09-17 00:00:00 19.4 17 Nordeste 26 Nordeste 0.4 -- -- 69
2020-09-16 23:00:00 22.9 7 Nordeste 31 Noroeste 0 -- -- 54
2020-09-16 22:00:00 24.8 8 Norte 26 Oeste 0 -- -- 41
2020-09-16 21:00:00 25.8 3 Este 6 Este 0 -- -- 38
2020-09-16 20:00:00 27.2 3 Este 12 Sur 0 -- -- 35
2020-09-16 19:00:00 27.9 6 Sur 19 Sur 0 -- -- 34
2020-09-16 18:00:00 28.8 10 Este 21 Sudeste 0 -- -- 31
2020-09-16 17:00:00 29 9 Sudeste 22 Sudeste 0 -- -- 32
2020-09-16 16:00:00 29 12 Sur 27 Sur 0 -- -- 34
2020-09-16 15:00:00 27.7 9 Sur 19 Sudeste 0 -- -- 37
2020-09-16 14:00:00 26.6 9 Sudeste 22 Sudeste 0 -- -- 43
2020-09-16 13:00:00 25.1 9 Este 21 Sudeste 0 -- -- 47
2020-09-16 12:00:00 23.4 6 Sudeste 18 Este 0 -- -- 51
2020-09-16 11:00:00 22.6 7 Este 15 Este 0 -- -- 53
2020-09-16 10:00:00 20.1 7 Nordeste 12 Nordeste 0 -- -- 59
2020-09-16 09:00:00 17.9 6 Nordeste 15 Este 0 -- -- 64
2020-09-16 08:00:00 17 9 Nordeste 17 Nordeste 0 -- -- 65
2020-09-16 07:00:00 17.7 6 Nordeste 12 Nordeste 0 -- -- 62
2020-09-16 06:00:00 17.9 5 Nordeste 13 Nordeste 0 -- -- 61
2020-09-16 05:00:00 17.7 6 Nordeste 13 Nordeste 0 -- -- 62
2020-09-16 04:00:00 18.4 7 Nordeste 13 Nordeste 0 -- -- 59
2020-09-16 03:00:00 19.1 6 Nordeste 9 Nordeste 0 -- -- 56
2020-09-16 02:00:00 19.4 6 Nordeste 11 Nordeste 0 -- -- 56
2020-09-16 01:00:00 20.7 4 Nordeste 12 Nordeste 0 -- -- 52
2020-09-16 00:00:00 20.6 7 Nordeste 13 Nordeste 0 -- -- 52
2020-09-15 23:00:00 21 6 Nordeste 12 Nordeste 0 -- -- 53
2020-09-15 22:00:00 21.4 3 Nordeste 6 Nordeste 0 -- -- 53
2020-09-15 21:00:00 23.1 2 Nordeste 5 Oeste 0 -- -- 47
2020-09-15 20:00:00 25.4 5 Oeste 16 Oeste 0 -- -- 42
2020-09-15 19:00:00 26.4 8 Sudoeste 26 Oeste 0 -- -- 39
2020-09-15 18:00:00 27 10 Sudoeste 26 Sudoeste 0 -- -- 37
2020-09-15 17:00:00 27.8 10 Sudoeste 27 Sudoeste 0 -- -- 36
2020-09-15 16:00:00 26.1 13 Sur 26 Sudoeste 0 -- -- 42
2020-09-15 15:00:00 25.3 12 Sur 27 Sudoeste 0 -- -- 51
2020-09-15 14:00:00 24 5 Sur 21 Sur 0 -- -- 56
2020-09-15 13:00:00 23.6 7 Sudeste 15 Sudeste 0 -- -- 57
2020-09-15 12:00:00 21.4 8 Este 18 Sudeste 0 -- -- 65
2020-09-15 11:00:00 20.6 8 Este 18 Nordeste 0 -- -- 66
2020-09-15 10:00:00 18.7 6 Nordeste 16 Este 0 -- -- 79
2020-09-15 09:00:00 17.9 6 Nordeste 15 Nordeste 0 -- -- 80
2020-09-15 08:00:00 17.3 8 Nordeste 15 Nordeste 0 -- -- 82
2020-09-15 07:00:00 17.4 5 Nordeste 18 Nordeste 0 -- -- 81
2020-09-15 06:00:00 18.3 4 Nordeste 10 Nordeste 0 -- -- 72
2020-09-15 05:00:00 18.5 7 Nordeste 14 Nordeste 0 -- -- 68
2020-09-15 04:00:00 18.9 8 Nordeste 14 Nordeste 0 -- -- 68
2020-09-15 03:00:00 19.1 5 Nordeste 15 Este 0 -- -- 69
2020-09-15 02:00:00 20.1 4 Este 8 Este 0.2 -- -- 67
2020-09-15 01:00:00 21.9 4 Sudeste 14 Este 0 -- -- 48
2020-09-15 00:00:00 22.3 2 Norte 13 Sudeste 0 -- -- 46
2020-09-14 23:00:00 23.5 8 Sudeste 25 Sudeste 0 -- -- 43
2020-09-14 22:00:00 24.1 5 Sudeste 21 Sur 0 -- -- 42
2020-09-14 21:00:00 25.5 13 Sur 32 Este 0 -- -- 39
2020-09-14 20:00:00 27.5 4 Este 19 Este 0 -- -- 32
2020-09-14 19:00:00 28.3 13 Sudeste 24 Sudeste 0 -- -- 32
2020-09-14 18:00:00 28.3 8 Sudeste 21 Este 0 -- -- 35
2020-09-14 17:00:00 28.3 8 Sur 23 Este 0 -- -- 35
2020-09-14 16:00:00 27.1 9 Este 21 Este 0 -- -- 38
2020-09-14 15:00:00 27.1 12 Este 26 Sudeste 0 -- -- 38
2020-09-14 14:00:00 25.6 8 Este 26 Este 0 -- -- 41
2020-09-14 13:00:00 24.3 8 Este 21 Este 0 -- -- 45
2020-09-14 12:00:00 23.2 10 Este 22 Este 0 -- -- 49
2020-09-14 11:00:00 21.4 10 Este 23 Nordeste 0 -- -- 53
2020-09-14 10:00:00 20.5 8 Este 21 Este 0 -- -- 56
2020-09-14 09:00:00 20.1 10 Este 19 Este 0 -- -- 57
2020-09-14 08:00:00 18.9 6 Este 19 Nordeste 0 -- -- 61
2020-09-14 07:00:00 19.2 8 Nordeste 17 Este 0 -- -- 60
2020-09-14 06:00:00 19.7 9 Este 20 Nordeste 0 -- -- 58
2020-09-14 05:00:00 20.5 9 Este 19 Este 0 -- -- 55
2020-09-14 04:00:00 20.7 9 Este 24 Este 0 -- -- 54
2020-09-14 03:00:00 21.1 7 Este 13 Este 0 -- -- 51
2020-09-14 02:00:00 22.6 5 Sudeste 22 Este 0 -- -- 45
2020-09-14 01:00:00 22.5 5 Este 13 Sudeste 0 -- -- 43
2020-09-14 00:00:00 23.4 4 Este 13 Sudeste 0 -- -- 39
2020-09-13 23:00:00 23.7 5 Sudeste 13 Sudeste 0 -- -- 37
2020-09-13 22:00:00 24.3 4 Este 8 Sudeste 0 -- -- 35
2020-09-13 21:00:00 26.2 4 Sudeste 7 Sudeste 0 -- -- 32
2020-09-13 20:00:00 28.7 6 Sudeste 18 Sudeste 0 -- -- 29
2020-09-13 19:00:00 29.4 9 Sur 20 Sudeste 0 -- -- 28
2020-09-13 18:00:00 29.9 10 Sur 23 Sur 0 -- -- 27
2020-09-13 17:00:00 30.6 11 Sur 21 Sur 0 -- -- 27
2020-09-13 16:00:00 29.5 9 Sudeste 18 Sur 0 -- -- 30
2020-09-13 15:00:00 28.6 10 Sudeste 22 Sudeste 0 -- -- 32
2020-09-13 14:00:00 27 8 Este 28 Este 0 -- -- 35
2020-09-13 13:00:00 26.4 10 Este 26 Este 0 -- -- 38
2020-09-13 12:00:00 25.3 13 Este 24 Este 0 -- -- 40
2020-09-13 11:00:00 23.7 12 Este 26 Este 0 -- -- 45
2020-09-13 10:00:00 21.4 8 Nordeste 16 Nordeste 0 -- -- 53
2020-09-13 09:00:00 18.8 9 Nordeste 15 Nordeste 0 -- -- 57
2020-09-13 08:00:00 18.4 8 Nordeste 15 Nordeste 0 -- -- 58
2020-09-13 07:00:00 18.3 8 Nordeste 15 Norte 0 -- -- 59
2020-09-13 06:00:00 19 6 Nordeste 17 Nordeste 0 -- -- 57
2020-09-13 05:00:00 19.7 8 Nordeste 16 Este 0 -- -- 54
2020-09-13 04:00:00 21.1 9 Nordeste 16 Este 0 -- -- 46
2020-09-13 03:00:00 21.6 9 Nordeste 24 Este 0 -- -- 44
2020-09-13 02:00:00 22.8 15 Nordeste 26 Este 0 -- -- 37
2020-09-13 01:00:00 22.8 9 Nordeste 17 Nordeste 0 -- -- 35
2020-09-13 00:00:00 23.1 10 Nordeste 21 Norte 0 -- -- 35
2020-09-12 23:00:00 23.6 9 Nordeste 16 Nordeste 0 -- -- 35
2020-09-12 22:00:00 24.8 3 Sudeste 7 Sur 0 -- -- 30
2020-09-12 21:00:00 26.9 5 Sudeste 8 Sur 0 -- -- 28
2020-09-12 20:00:00 28.6 5 Sur 13 Sudeste 0 -- -- 26
2020-09-12 19:00:00 30.1 9 Sudeste 16 Sur 0 -- -- 25
2020-09-12 18:00:00 30.7 7 Sur 27 Sur 0 -- -- 24
2020-09-12 17:00:00 31.8 6 Sudoeste 22 Sur 0 -- -- 23
2020-09-12 16:00:00 31.4 9 Sudoeste 19 Sur 0 -- -- 24
2020-09-12 15:00:00 30.4 8 Sur 19 Sur 0 -- -- 26
2020-09-12 14:00:00 28.9 9 Sudeste 19 Sudeste 0 -- -- 30
2020-09-12 13:00:00 27.1 8 Este 20 Nordeste 0 -- -- 34
2020-09-12 12:00:00 24.9 8 Este 23 Este 0 -- -- 38
2020-09-12 11:00:00 23.3 10 Este 22 Este 0 -- -- 40
2020-09-12 10:00:00 21.6 8 Nordeste 19 Sudeste 0 -- -- 44
2020-09-12 09:00:00 18.9 8 Nordeste 14 Nordeste 0 -- -- 50
2020-09-12 08:00:00 16.7 5 Nordeste 15 Nordeste 0 -- -- 54
2020-09-12 07:00:00 17.3 8 Nordeste 16 Nordeste 0 -- -- 51
2020-09-12 06:00:00 17.9 9 Nordeste 18 Nordeste 0 -- -- 49
2020-09-12 05:00:00 18.8 9 Nordeste 18 Nordeste 0 -- -- 48
2020-09-12 04:00:00 19.9 10 Nordeste 18 Nordeste 0 -- -- 42
2020-09-12 03:00:00 20.4 11 Nordeste 30 Nordeste 0 -- -- 41
2020-09-12 02:00:00 22 13 Nordeste 23 Este 0 -- -- 36
2020-09-12 01:00:00 21.6 7 Nordeste 19 Nordeste 0 -- -- 39
2020-09-12 00:00:00 22.1 6 Nordeste 11 Norte 0 -- -- 39
2020-09-11 23:00:00 22.2 4 Nordeste 6 Nordeste 0 -- -- 38
2020-09-11 22:00:00 23.3 2 Norte 8 Norte 0 -- -- 35
2020-09-11 21:00:00 25.1 5 Sur 11 Sudoeste 0 -- -- 32
2020-09-11 20:00:00 27.7 8 Sudoeste 17 Sudoeste 0 -- -- 28
2020-09-11 19:00:00 29.3 9 Sudoeste 21 Sudoeste 0 -- -- 27
2020-09-11 18:00:00 30.1 9 Sudoeste 26 Sudoeste 0 -- -- 26
2020-09-11 17:00:00 31.2 10 Sur 24 Sur 0 -- -- 25
2020-09-11 16:00:00 30.9 8 Sur 23 Sur 0 -- -- 26
2020-09-11 15:00:00 29.7 9 Sur 22 Sur 0 -- -- 27
2020-09-11 14:00:00 28.7 9 Sudoeste 21 Sudoeste 0 -- -- 29
2020-09-11 13:00:00 27.3 5 Sur 13 Sur 0 -- -- 31
2020-09-11 12:00:00 24.9 5 Sudeste 16 Sudeste 0 -- -- 34
2020-09-11 11:00:00 23 7 Este 17 Este 0 -- -- 37
2020-09-11 10:00:00 21.3 10 Este 18 Este 0 -- -- 40
2020-09-11 09:00:00 18.1 4 Nordeste 10 Nordeste 0 -- -- 48
2020-09-11 08:00:00 16.9 8 Nordeste 15 Nordeste 0 -- -- 50
2020-09-11 07:00:00 17.4 6 Nordeste 16 Nordeste 0 -- -- 50
2020-09-11 06:00:00 17.4 6 Nordeste 12 Nordeste 0 -- -- 49
2020-09-11 05:00:00 17 4 Nordeste 18 Nordeste 0 -- -- 52
2020-09-11 04:00:00 17.8 9 Nordeste 18 Nordeste 0 -- -- 50
2020-09-11 03:00:00 19.3 9 Nordeste 23 Nordeste 0 -- -- 46
2020-09-11 02:00:00 20.9 11 Nordeste 22 Este 0 -- -- 41
2020-09-11 01:00:00 21.2 8 Nordeste 15 Este 0 -- -- 38
2020-09-11 00:00:00 21.5 5 Nordeste 14 Nordeste 0 -- -- 37
2020-09-10 23:00:00 22.6 10 Nordeste 19 Nordeste 0 -- -- 36
2020-09-10 22:00:00 23.5 5 Noroeste 12 Noroeste 0 -- -- 35
2020-09-10 21:00:00 26 3 Noroeste 11 Noroeste 0 -- -- 31
2020-09-10 20:00:00 27.3 5 Este 12 Sudeste 0 -- -- 31
2020-09-10 19:00:00 27.9 8 Sudeste 17 Sudeste 0 -- -- 30
2020-09-10 18:00:00 29.4 4 Sur 17 Sur 0 -- -- 29
2020-09-10 17:00:00 29.8 7 Sur 18 Sudeste 0 -- -- 28
2020-09-10 16:00:00 29.4 8 Sur 21 Este 0 -- -- 29
2020-09-10 15:00:00 28 6 Sudeste 21 Este 0 -- -- 31
2020-09-10 14:00:00 26.9 9 Este 22 Sudeste 0 -- -- 34
2020-09-10 13:00:00 25.1 6 Nordeste 22 Este 0 -- -- 37
2020-09-10 12:00:00 23.4 10 Este 28 Sudeste 0 -- -- 41
2020-09-10 11:00:00 22.2 10 Este 22 Sudeste 0 -- -- 44
2020-09-10 10:00:00 18.6 9 Nordeste 16 Norte 0 -- -- 51
2020-09-10 09:00:00 15.8 5 Nordeste 13 Este 0 -- -- 59
2020-09-10 08:00:00 15.9 8 Este 14 Este 0 -- -- 59
2020-09-10 07:00:00 16.4 6 Este 11 Nordeste 0 -- -- 56
2020-09-10 06:00:00 16.9 3 Nordeste 18 Nordeste 0 -- -- 56
2020-09-10 05:00:00 18.4 10 Nordeste 17 Nordeste 0 -- -- 53
2020-09-10 04:00:00 18.4 10 Nordeste 17 Nordeste 0 -- -- 50
2020-09-10 03:00:00 19.4 7 Nordeste 22 Este 0 -- -- 45
2020-09-10 02:00:00 20.4 12 Este 24 Nordeste 0 -- -- 39
2020-09-10 01:00:00 20.7 8 Norte 20 Nordeste 0 -- -- 37
2020-09-10 00:00:00 21 7 Norte 13 Norte 0 -- -- 36
2020-09-09 23:00:00 21.3 5 Noroeste 9 Noroeste 0 -- -- 36
2020-09-09 22:00:00 21.1 3 Noroeste 8 Oeste 0 -- -- 37
2020-09-09 21:00:00 23.3 4 Sudoeste 15 Sudoeste 0 -- -- 33
2020-09-09 20:00:00 25.7 9 Sudoeste 18 Sudoeste 0 -- -- 30
2020-09-09 19:00:00 26.8 10 Sudoeste 21 Sudoeste 0 -- -- 29
2020-09-09 18:00:00 27.4 9 Sudoeste 24 Sudeste 0 -- -- 28
2020-09-09 17:00:00 27.6 13 Sur 23 Sudoeste 0 -- -- 28
2020-09-09 16:00:00 27.1 13 Sudoeste 23 Sudoeste 0 -- -- 30
2020-09-09 15:00:00 26.3 9 Sudoeste 23 Sudoeste 0 -- -- 30
2020-09-09 14:00:00 24.9 7 Sudoeste 20 Sudoeste 0 -- -- 34
2020-09-09 13:00:00 23.3 8 Sudoeste 18 Sudoeste 0 -- -- 38
2020-09-09 12:00:00 21.8 8 Sur 15 Sudeste 0 -- -- 41
2020-09-09 11:00:00 20 6 Sur 12 Sur 0 -- -- 45
2020-09-09 10:00:00 18.1 6 Este 12 Este 0 -- -- 49
2020-09-09 09:00:00 15.2 5 Nordeste 11 Nordeste 0 -- -- 53
2020-09-09 08:00:00 14.3 8 Nordeste 15 Nordeste 0 -- -- 53
2020-09-09 07:00:00 14.1 6 Nordeste 12 Nordeste 0 -- -- 54
2020-09-09 06:00:00 14.3 7 Nordeste 14 Nordeste 0 -- -- 52
2020-09-09 05:00:00 14.7 6 Nordeste 10 Nordeste 0 -- -- 58
2020-09-09 04:00:00 15 4 Este 9 Nordeste 0 -- -- 52
2020-09-09 03:00:00 15.2 4 Nordeste 8 Nordeste 0 -- -- 47
2020-09-09 02:00:00 16.4 4 Este 18 Nordeste 0 -- -- 45
2020-09-09 01:00:00 16.4 8 Este 16 Nordeste 0 -- -- 43
2020-09-09 00:00:00 17.3 5 Nordeste 8 Nordeste 0 -- -- 41
2020-09-08 23:00:00 17.4 4 Nordeste 6 Nordeste 0 -- -- 42
2020-09-08 22:00:00 18.9 3 Nordeste 6 Nordeste 0 -- -- 39
2020-09-08 21:00:00 20.9 3 Nordeste 9 Nordeste 0 -- -- 34
2020-09-08 20:00:00 23.5 4 Este 12 Sudeste 0 -- -- 30
2020-09-08 19:00:00 24 6 Sudeste 20 Este 0 -- -- 29
2020-09-08 18:00:00 24.2 5 Sudeste 22 Este 0 -- -- 28
2020-09-08 17:00:00 24.7 8 Sudeste 26 Sudeste 0 -- -- 28
2020-09-08 16:00:00 23.8 12 Sudeste 24 Sudeste 0 -- -- 30
2020-09-08 15:00:00 23.2 8 Este 26 Este 0 -- -- 34
2020-09-08 14:00:00 21.9 10 Sudeste 26 Este 0 -- -- 37
2020-09-08 13:00:00 20.6 10 Sudeste 22 Sudeste 0 -- -- 45
2020-09-08 12:00:00 18.7 9 Este 21 Sudeste 0 -- -- 51
2020-09-08 11:00:00 17.1 10 Este 21 Este 0 -- -- 50
2020-09-08 10:00:00 13.9 9 Nordeste 22 Nordeste 0 -- -- 56
2020-09-08 09:00:00 12.5 10 Nordeste 20 Nordeste 0 -- -- 60
2020-09-08 08:00:00 11.8 10 Nordeste 22 Nordeste 0 -- -- 58
2020-09-08 07:00:00 10.9 12 Nordeste 19 Nordeste 0 -- -- 65
2020-09-08 06:00:00 11.5 10 Nordeste 21 Nordeste 0 -- -- 60
2020-09-08 05:00:00 12.4 8 Nordeste 24 Nordeste 0 -- -- 53
2020-09-08 04:00:00 13 8 Este 22 Nordeste 0 -- -- 49
2020-09-08 03:00:00 14.1 11 Este 25 Este 0 -- -- 46
2020-09-08 02:00:00 15.5 12 Este 25 Este 0 -- -- 43
2020-09-08 01:00:00 16.7 13 Nordeste 31 Nordeste 0 -- -- 40
2020-09-08 00:00:00 18.2 14 Este 28 Nordeste 0 -- -- 37
2020-09-07 23:00:00 19.1 9 Nordeste 21 Nordeste 0 -- -- 38
2020-09-07 22:00:00 20.8 10 Nordeste 22 Norte 0 -- -- 38
2020-09-07 21:00:00 22.1 14 Norte 24 Nordeste 0 -- -- 34
2020-09-07 20:00:00 24.3 13 Norte 23 Norte 0 -- -- 28
2020-09-07 19:00:00 25.4 12 Norte 24 Nordeste 0 -- -- 28
2020-09-07 18:00:00 26 5 Noroeste 16 Nordeste 0 -- -- 29
2020-09-07 17:00:00 26.3 4 Sudoeste 19 Nordeste 0 -- -- 29
2020-09-07 16:00:00 24.8 4 Este 30 Sudeste 0 -- -- 31
2020-09-07 15:00:00 23.1 9 Sudeste 27 Sudeste 0 -- -- 33
2020-09-07 14:00:00 22.6 8 Sudeste 19 Este 0 -- -- 36
2020-09-07 13:00:00 21 8 Sudeste 21 Este 0 -- -- 39
2020-09-07 12:00:00 18.9 7 Sur 17 Sudeste 0 -- -- 45
2020-09-07 11:00:00 16.9 7 Sudeste 17 Este 0 -- -- 50
2020-09-07 10:00:00 15.1 10 Este 21 Sudeste 0 -- -- 54
2020-09-07 09:00:00 13.9 9 Este 18 Este 0 -- -- 59
2020-09-07 08:00:00 13 6 Este 15 Este 0 -- -- 61
2020-09-07 07:00:00 13.7 7 Este 15 Este 0 -- -- 59
2020-09-07 06:00:00 14.9 8 Este 14 Sudeste 0 -- -- 59
2020-09-07 05:00:00 16.2 9 Sudeste 13 Sudeste 0 -- -- 55
2020-09-07 04:00:00 17.8 8 Este 14 Este 0 -- -- 49
2020-09-07 03:00:00 18.7 9 Este 14 Nordeste 0 -- -- 49
2020-09-07 02:00:00 20.6 8 Este 17 Este 0 -- -- 42
2020-09-07 01:00:00 23 9 Este 29 Norte 0 -- -- 36
2020-09-07 00:00:00 24 19 Norte 40 Norte 0 -- -- 32
2020-09-06 23:00:00 25 19 Norte 39 Norte 0 -- -- 34
2020-09-06 22:00:00 25.1 15 Norte 33 Norte 0 -- -- 35
2020-09-06 21:00:00 26.3 14 Norte 28 Norte 0 -- -- 36
2020-09-06 20:00:00 28.6 17 Norte 30 Norte 0 -- -- 32
2020-09-06 19:00:00 29.9 12 Norte 24 Norte 0 -- -- 28
2020-09-06 18:00:00 30.5 8 Norte 16 Norte 0 -- -- 24
2020-09-06 17:00:00 32.7 5 Sudoeste 24 Sur 0 -- -- 22
2020-09-06 16:00:00 31.6 12 Sudoeste 23 Sudoeste 0 -- -- 23
2020-09-06 15:00:00 30.3 8 Sudeste 21 Sudeste 0 -- -- 25
2020-09-06 14:00:00 29.2 8 Sur 17 Sudeste 0 -- -- 25
2020-09-06 13:00:00 27.4 7 Este 19 Este 0 -- -- 27
2020-09-06 12:00:00 25.7 9 Sudeste 22 Este 0 -- -- 29
2020-09-06 11:00:00 24.6 8 Este 18 Este 0 -- -- 31
2020-09-06 10:00:00 21.6 6 Nordeste 14 Nordeste 0 -- -- 46
2020-09-06 09:00:00 18.6 8 Nordeste 13 Nordeste 0 -- -- 58
2020-09-06 08:00:00 17.7 7 Nordeste 21 Nordeste 0 -- -- 60
2020-09-06 07:00:00 17.6 9 Nordeste 16 Nordeste 0 -- -- 62
2020-09-06 06:00:00 18.7 8 Nordeste 14 Norte 0 -- -- 58
2020-09-06 05:00:00 19.2 6 Nordeste 9 Nordeste 0 -- -- 59
2020-09-06 04:00:00 19.9 3 Este 12 Nordeste 0 -- -- 52
2020-09-06 03:00:00 21.6 5 Este 17 Nordeste 0 -- -- 48
2020-09-06 02:00:00 23 10 Este 28 Este 0 -- -- 44
2020-09-06 01:00:00 23.2 10 Nordeste 22 Nordeste 0 -- -- 40
2020-09-06 00:00:00 22.3 3 Nordeste 7 Nordeste 0 -- -- 38
2020-09-05 23:00:00 23.2 3 Norte 5 Norte 0 -- -- 36
2020-09-05 22:00:00 24.6 0 Calma 7 Sudoeste 0 -- -- 33
2020-09-05 21:00:00 27.2 3 Sur 9 Sudeste 0 -- -- 28
2020-09-05 20:00:00 30 6 Sur 17 Sudeste 0 -- -- 25
2020-09-05 19:00:00 31.1 3 Sur 20 Este 0 -- -- 24
2020-09-05 18:00:00 31.6 5 Este 21 Sur 0 -- -- 24
2020-09-05 17:00:00 32 6 Sudeste 21 Sudeste 0 -- -- 25
2020-09-05 16:00:00 31.7 10 Sur 19 Sudoeste 0 -- -- 27
2020-09-05 15:00:00 30.6 7 Sudeste 16 Este 0 -- -- 30
2020-09-05 14:00:00 29.1 7 Sudeste 14 Sudeste 0 -- -- 33
2020-09-05 13:00:00 27.3 8 Sur 15 Este 0 -- -- 39
2020-09-05 12:00:00 24.5 4 Nordeste 12 Este 0 -- -- 48
2020-09-05 11:00:00 23.1 5 Sur 12 Sur 0 -- -- 54
2020-09-05 10:00:00 21.7 3 Sudeste 9 Este 0 -- -- 57
2020-09-05 09:00:00 18.3 6 Nordeste 11 Nordeste 0 -- -- 55
2020-09-05 08:00:00 16.2 6 Nordeste 9 Nordeste 0 -- -- 57
2020-09-05 07:00:00 16.7 5 Nordeste 9 Este 0 -- -- 56
2020-09-05 06:00:00 17 6 Este 10 Nordeste 0 -- -- 54
2020-09-05 05:00:00 17.6 7 Nordeste 10 Este 0 -- -- 53
2020-09-05 04:00:00 18.3 6 Este 10 Nordeste 0 -- -- 48
2020-09-05 03:00:00 19.2 2 Este 5 Sur 0 -- -- 44
2020-09-05 02:00:00 20 3 Sur 6 Sur 0 -- -- 41
2020-09-05 01:00:00 19.8 3 Nordeste 5 Este 0 -- -- 42
2020-09-05 00:00:00 20.7 3 Nordeste 5 Nordeste 0 -- -- 41
2020-09-04 23:00:00 22.1 2 Nordeste 6 Sur 0 -- -- 38
2020-09-04 22:00:00 23.5 2 Sudoeste 6 Sur 0 -- -- 33
2020-09-04 21:00:00 26.4 4 Sur 8 Sur 0 -- -- 30
2020-09-04 20:00:00 29.2 4 Sudeste 17 Sudeste 0 -- -- 26
2020-09-04 19:00:00 29.9 9 Sur 16 Sudeste 0 -- -- 25
2020-09-04 18:00:00 30.3 5 Nordeste 23 Sudoeste 0 -- -- 26
2020-09-04 17:00:00 31.1 6 Sudeste 19 Sudoeste 0 -- -- 27
2020-09-04 16:00:00 30.3 7 Sudeste 20 Sudeste 0 -- -- 29
2020-09-04 15:00:00 29.1 9 Sur 18 Sur 0 -- -- 33
2020-09-04 14:00:00 27.9 7 Sur 19 Sudeste 0 -- -- 37
2020-09-04 13:00:00 26.5 9 Sur 20 Sur 0 -- -- 40
2020-09-04 12:00:00 24.4 8 Sudeste 17 Este 0 -- -- 46
2020-09-04 11:00:00 23 8 Este 18 Sudeste 0 -- -- 50
2020-09-04 10:00:00 21.1 4 Nordeste 12 Nordeste 0 -- -- 56
2020-09-04 09:00:00 17.9 7 Nordeste 15 Nordeste 0 -- -- 57
2020-09-04 08:00:00 16.9 6 Nordeste 13 Nordeste 0 -- -- 54
2020-09-04 07:00:00 17.4 8 Nordeste 14 Nordeste 0 -- -- 51
2020-09-04 06:00:00 17.5 8 Nordeste 16 Norte 0 -- -- 48
2020-09-04 05:00:00 18.1 7 Nordeste 13 Nordeste 0 -- -- 44
2020-09-04 04:00:00 19 8 Este 14 Este 0 -- -- 41
2020-09-04 03:00:00 19.6 6 Este 23 Este 0 -- -- 39
2020-09-04 02:00:00 20.9 6 Nordeste 11 Nordeste 0 -- -- 35
2020-09-04 01:00:00 21.7 8 Nordeste 14 Nordeste 0 -- -- 34
2020-09-04 00:00:00 22 9 Nordeste 14 Norte 0 -- -- 36
2020-09-03 23:00:00 21.9 5 Nordeste 9 Nordeste 0 -- -- 37
2020-09-03 22:00:00 23.6 3 Sur 10 Sur 0 -- -- 30
2020-09-03 21:00:00 26.3 5 Sur 12 Sur 0 -- -- 28
2020-09-03 20:00:00 28.7 5 Sur 15 Sudeste 0 -- -- 26
2020-09-03 19:00:00 29.6 6 Sudeste 18 Sudoeste 0 -- -- 26
2020-09-03 18:00:00 30.1 8 Sudoeste 19 Sur 0 -- -- 25
2020-09-03 17:00:00 30.7 6 Sudeste 22 Sudoeste 0 -- -- 25
2020-09-03 16:00:00 29.6 10 Sur 30 Sur 0 -- -- 27
2020-09-03 15:00:00 29.1 7 Sudoeste 21 Sudoeste 0 -- -- 28
2020-09-03 14:00:00 27.6 10 Sur 19 Sudeste 0 -- -- 32
2020-09-03 13:00:00 26 5 Sudeste 15 Sudeste 0 -- -- 35
2020-09-03 12:00:00 23.2 7 Sudeste 17 Este 0 -- -- 48
2020-09-03 11:00:00 21.1 4 Nordeste 13 Este 0 -- -- 52
2020-09-03 10:00:00 19.5 6 Este 14 Nordeste 0 -- -- 58
2020-09-03 09:00:00 16.2 5 Nordeste 10 Nordeste 0 -- -- 50
2020-09-03 08:00:00 14.9 6 Este 11 Nordeste 0 -- -- 49
2020-09-03 07:00:00 14.9 5 Nordeste 9 Norte 0 -- -- 50
2020-09-03 06:00:00 16.6 4 Nordeste 13 Este 0 -- -- 46
2020-09-03 05:00:00 16.4 6 Nordeste 18 Nordeste 0 -- -- 48
2020-09-03 04:00:00 16.7 10 Nordeste 16 Nordeste 0 -- -- 54
2020-09-03 03:00:00 19.2 9 Este 16 Este 0 -- -- 37
2020-09-03 02:00:00 18.5 6 Nordeste 15 Nordeste 0 -- -- 39
2020-09-03 01:00:00 20 8 Nordeste 16 Nordeste 0 -- -- 36
2020-09-03 00:00:00 21.9 8 Norte 15 Nordeste 0 -- -- 32
2020-09-02 23:00:00 22.4 9 Norte 18 Norte 0 -- -- 32
2020-09-02 22:00:00 23.1 8 Norte 13 Nordeste 0 -- -- 31
2020-09-02 21:00:00 25.1 4 Norte 12 Norte 0 -- -- 27
2020-09-02 20:00:00 27.6 4 Oeste 17 Sudeste 0 -- -- 26
2020-09-02 19:00:00 28.2 4 Sur 18 Sudoeste 0 -- -- 25
2020-09-02 18:00:00 28.1 9 Sur 18 Sur 0 -- -- 25
2020-09-02 17:00:00 28.6 4 Oeste 24 Sudoeste 0 -- -- 25
2020-09-02 16:00:00 28.4 6 Oeste 18 Oeste 0 -- -- 25
2020-09-02 15:00:00 27.4 7 Oeste 15 Noroeste 0 -- -- 27
2020-09-02 14:00:00 25.3 6 Este 18 Sudeste 0 -- -- 31
2020-09-02 13:00:00 24.2 6 Este 18 Este 0 -- -- 34
2020-09-02 12:00:00 21.7 12 Sudeste 23 Este 0 -- -- 36
2020-09-02 11:00:00 20.3 12 Este 24 Este 0 -- -- 37
2020-09-02 10:00:00 18.5 14 Nordeste 27 Este 0 -- -- 41
2020-09-02 09:00:00 15.9 8 Nordeste 17 Nordeste 0 -- -- 48
2020-09-02 08:00:00 13.6 9 Nordeste 18 Nordeste 0 -- -- 52
2020-09-02 07:00:00 14.5 9 Nordeste 16 Nordeste 0 -- -- 47
2020-09-02 06:00:00 15.3 7 Nordeste 15 Nordeste 0 -- -- 52
2020-09-02 05:00:00 16.8 9 Nordeste 18 Nordeste 0 -- -- 41
2020-09-02 04:00:00 17.5 10 Nordeste 29 Este 0 -- -- 42
2020-09-02 03:00:00 18.4 15 Nordeste 30 Nordeste 0 -- -- 38
2020-09-02 02:00:00 18.7 13 Nordeste 28 Este 0 -- -- 37
2020-09-02 01:00:00 18 7 Nordeste 16 Nordeste 0 -- -- 34
2020-09-02 00:00:00 18.1 6 Nordeste 10 Nordeste 0 -- -- 33
2020-09-01 23:00:00 18.7 4 Nordeste 6 Este 0 -- -- 36
2020-09-01 22:00:00 20.5 2 Sudoeste 5 Sudoeste 0 -- -- 29
2020-09-01 21:00:00 23 3 Sudoeste 6 Sudoeste 0 -- -- 27
2020-09-01 20:00:00 24.5 3 Sudoeste 8 Sudoeste 0 -- -- 24
2020-09-01 19:00:00 25.1 4 Sudoeste 17 Sudoeste 0 -- -- 23
2020-09-01 18:00:00 25.3 8 Sur 23 Sudeste 0 -- -- 24
2020-09-01 17:00:00 27.2 5 Sur 22 Sudoeste 0 -- -- 23
2020-09-01 16:00:00 26.2 9 Sur 19 Sur 0 -- -- 24
2020-09-01 15:00:00 24 7 Sur 15 Sudoeste 0 -- -- 26
2020-09-01 14:00:00 24.6 6 Sudeste 17 Sur 0 -- -- 26
2020-09-01 13:00:00 22.6 7 Sudeste 20 Sur 0 -- -- 28
2020-09-01 12:00:00 20.7 7 Sudeste 14 Sudeste 0 -- -- 31
2020-09-01 11:00:00 18.4 7 Este 16 Este 0 -- -- 36
2020-09-01 10:00:00 17.5 5 Nordeste 9 Nordeste 0 -- -- 41
2020-09-01 09:00:00 16.4 5 Nordeste 10 Este 0 -- -- 40
2020-09-01 08:00:00 15.3 5 Nordeste 9 Nordeste 0 -- -- 42
2020-09-01 07:00:00 15.1 4 Nordeste 8 Nordeste 0 -- -- 42
2020-09-01 06:00:00 15.2 5 Nordeste 9 Este 0 -- -- 39
2020-09-01 05:00:00 15.7 6 Este 15 Nordeste 0 -- -- 38
2020-09-01 04:00:00 16 6 Nordeste 14 Nordeste 0 -- -- 36
2020-09-01 03:00:00 15.4 5 Nordeste 10 Nordeste 0 -- -- 37
2020-09-01 02:00:00 15.5 5 Nordeste 9 Nordeste 0 -- -- 38
2020-09-01 01:00:00 15.6 3 Nordeste 8 Nordeste 0 -- -- 38
2020-09-01 00:00:00 16.3 3 Nordeste 7 Nordeste 0 -- -- 37
2020-08-31 23:00:00 17.1 4 Nordeste 7 Norte 0 -- -- 35
2020-08-31 22:00:00 18.1 2 Norte 6 Norte 0 -- -- 34
2020-08-31 21:00:00 20.7 4 Sur 14 Sudoeste 0 -- -- 29
2020-08-31 20:00:00 23.4 7 Sudoeste 14 Sudoeste 0 -- -- 26
2020-08-31 19:00:00 23.4 6 Sur 16 Sur 0 -- -- 24
2020-08-31 18:00:00 23.9 7 Sur 22 Sur 0 -- -- 23
2020-08-31 17:00:00 23.8 9 Oeste 22 Sur 0 -- -- 24
2020-08-31 16:00:00 23.4 8 Sudoeste 24 Oeste 0 -- -- 25
2020-08-31 15:00:00 22.2 9 Sur 21 Sudoeste 0 -- -- 27
2020-08-31 14:00:00 21 5 Sur 19 Sudoeste 0 -- -- 31
2020-08-31 13:00:00 20 7 Sudoeste 19 Sudoeste 0 -- -- 33
2020-08-31 12:00:00 18.3 7 Sur 14 Sur 0 -- -- 38
2020-08-31 11:00:00 16.7 6 Sur 15 Nordeste 0 -- -- 44
2020-08-31 10:00:00 13.7 9 Nordeste 18 Nordeste 0 -- -- 52
2020-08-31 09:00:00 10.2 8 Nordeste 15 Nordeste 0 -- -- 60
2020-08-31 08:00:00 9.2 7 Nordeste 17 Norte 0 -- -- 63
2020-08-31 07:00:00 9.5 8 Nordeste 15 Nordeste 0 -- -- 61
2020-08-31 06:00:00 10.6 9 Nordeste 18 Nordeste 0 -- -- 63
2020-08-31 05:00:00 11.4 11 Nordeste 24 Este 0 -- -- 61
2020-08-31 04:00:00 11.8 9 Este 21 Nordeste 0 -- -- 57
2020-08-31 03:00:00 12.6 10 Nordeste 25 Este 0 -- -- 54
2020-08-31 02:00:00 13.7 12 Este 23 Este 0 -- -- 47
2020-08-31 01:00:00 14.6 8 Nordeste 19 Norte 0 -- -- 40
2020-08-31 00:00:00 15.1 9 Norte 19 Norte 0 -- -- 38
2020-08-30 23:00:00 15.8 12 Norte 22 Nordeste 0 -- -- 37
2020-08-30 22:00:00 16.4 13 Norte 23 Nordeste 0 -- -- 38
2020-08-30 21:00:00 17.7 14 Norte 27 Norte 0 -- -- 34
2020-08-30 20:00:00 19.7 14 Norte 28 Norte 0 -- -- 31
2020-08-30 19:00:00 20.9 10 Norte 20 Norte 0 -- -- 30
2020-08-30 18:00:00 21.1 12 Nordeste 22 Nordeste 0 -- -- 30
2020-08-30 17:00:00 22.8 5 Oeste 14 Oeste 0 -- -- 28
2020-08-30 16:00:00 20.3 3 Oeste 45 Noroeste 0 -- -- 32
2020-08-30 15:00:00 21.6 6 Nordeste 25 Este 0 -- -- 31
2020-08-30 14:00:00 19.5 7 Norte 24 Sudeste 0 -- -- 34
2020-08-30 13:00:00 18.8 5 Sudoeste 15 Sudoeste 0 -- -- 38
2020-08-30 12:00:00 16.1 5 Este 16 Sudeste 0 -- -- 44
2020-08-30 11:00:00 14.9 3 Sur 12 Sur 0 -- -- 47
2020-08-30 10:00:00 13.2 4 Sudoeste 9 Sudoeste 0 -- -- 52
2020-08-30 09:00:00 11.4 2 Norte 5 Norte 0 -- -- 58
2020-08-30 08:00:00 9.3 3 Norte 10 Oeste 0 -- -- 63
2020-08-30 07:00:00 9.8 5 Oeste 9 Oeste 0 -- -- 61
2020-08-30 06:00:00 10.7 4 Sudeste 7 Sur 0 -- -- 58
2020-08-30 05:00:00 12.2 7 Nordeste 19 Este 0 -- -- 54
2020-08-30 04:00:00 12.5 8 Nordeste 31 Norte 0 -- -- 54
2020-08-30 03:00:00 12.9 20 Norte 33 Norte 0 -- -- 51
2020-08-30 02:00:00 13.4 10 Nordeste 27 Norte 0 -- -- 53
2020-08-30 01:00:00 14.2 18 Norte 29 Norte 0 -- -- 54
2020-08-30 00:00:00 14.7 6 Noroeste 30 Nordeste 0 -- -- 53
2020-08-29 23:00:00 15.2 15 Norte 36 Norte 0 -- -- 54
2020-08-29 22:00:00 16.9 15 Norte 36 Norte 0 -- -- 46
2020-08-29 21:00:00 18.2 13 Norte 42 Norte 0 -- -- 40
2020-08-29 20:00:00 19 15 Norte 31 Norte 0 -- -- 37
2020-08-29 19:00:00 19.4 18 Norte 38 Norte 0 -- -- 39
2020-08-29 18:00:00 21 14 Norte 38 Norte 0 -- -- 32
2020-08-29 17:00:00 21.1 19 Norte 35 Norte 0 -- -- 34
2020-08-29 16:00:00 20.3 20 Norte 41 Nordeste 0 -- -- 35
2020-08-29 15:00:00 19.1 23 Norte 41 Norte 0 -- -- 38
2020-08-29 14:00:00 18.8 18 Norte 40 Norte 0 -- -- 39
2020-08-29 13:00:00 17.9 18 Norte 36 Noroeste 0 -- -- 41
2020-08-29 12:00:00 16.4 19 Norte 36 Norte 0 -- -- 44
2020-08-29 11:00:00 15.5 20 Norte 38 Norte 0 -- -- 47
2020-08-29 10:00:00 14.3 24 Norte 44 Nordeste 0 -- -- 50
2020-08-29 09:00:00 13.3 23 Norte 40 Norte 0 -- -- 56
2020-08-29 08:00:00 12.8 22 Norte 37 Norte 0 -- -- 57
2020-08-29 07:00:00 13.3 17 Norte 38 Norte 0 -- -- 55
2020-08-29 06:00:00 13.8 18 Norte 44 Norte 0 -- -- 55
2020-08-29 05:00:00 14.8 21 Nordeste 40 Norte 0 -- -- 55
2020-08-29 04:00:00 15.8 21 Norte 37 Nordeste 0 -- -- 55
2020-08-29 03:00:00 16.6 15 Norte 26 Nordeste 0 -- -- 56
2020-08-29 02:00:00 17.8 4 Nordeste 30 Norte 0 -- -- 45
2020-08-29 01:00:00 18.7 12 Norte 40 Norte 0 -- -- 42
2020-08-29 00:00:00 19.8 21 Norte 46 Norte 0 -- -- 38
2020-08-28 23:00:00 20.9 21 Norte 51 Oeste 0 -- -- 36
2020-08-28 22:00:00 22.5 24 Noroeste 46 Noroeste 0 -- -- 25
2020-08-28 21:00:00 24.1 22 Noroeste 43 Noroeste 0 -- -- 19
2020-08-28 20:00:00 26.9 19 Norte 40 Noroeste 0 -- -- 20
2020-08-28 19:00:00 28.4 17 Norte 35 Noroeste 0 -- -- 19
2020-08-28 18:00:00 29 17 Norte 37 Norte 0 -- -- 23
2020-08-28 17:00:00 30 19 Noroeste 37 Noroeste 0 -- -- 27
2020-08-28 16:00:00 30.2 18 Noroeste 33 Noroeste 0 -- -- 29
2020-08-28 15:00:00 29.5 18 Noroeste 37 Noroeste 0 -- -- 32
2020-08-28 14:00:00 28.8 15 Noroeste 34 Oeste 0 -- -- 33
2020-08-28 13:00:00 29 12 Noroeste 24 Oeste 0 -- -- 32
2020-08-28 12:00:00 27.3 13 Norte 23 Noroeste 0 -- -- 34
2020-08-28 11:00:00 25.7 3 Noroeste 10 Sudoeste 0 -- -- 39
2020-08-28 10:00:00 23.4 5 Nordeste 9 Nordeste 0 -- -- 52
2020-08-28 09:00:00 21.6 5 Norte 13 Norte 0 -- -- 58
2020-08-28 08:00:00 20.7 5 Nordeste 11 Noroeste 0 -- -- 58
2020-08-28 07:00:00 21.6 5 Norte 13 Norte 0 -- -- 51
2020-08-28 06:00:00 21.2 3 Norte 6 Noroeste 0 -- -- 48
2020-08-28 05:00:00 22.1 2 Norte 13 Noroeste 0 -- -- 43
2020-08-28 04:00:00 24 8 Noroeste 23 Nordeste 0 -- -- 39
2020-08-28 03:00:00 24.5 11 Norte 22 Norte 0 -- -- 42
2020-08-28 02:00:00 25.7 10 Norte 22 Nordeste 0 -- -- 39
2020-08-28 01:00:00 27 15 Norte 34 Norte 0 -- -- 35
2020-08-28 00:00:00 28.2 18 Norte 35 Norte 0 -- -- 29
2020-08-27 23:00:00 27.9 12 Norte 23 Norte 0 -- -- 31
2020-08-27 22:00:00 29.2 12 Norte 22 Norte 0 -- -- 28
2020-08-27 21:00:00 30.9 10 Norte 18 Noroeste 0 -- -- 26
2020-08-27 20:00:00 33.7 9 Nordeste 21 Sudoeste 0 -- -- 23
2020-08-27 19:00:00 34.1 10 Sudoeste 25 Sudoeste 0 -- -- 20
2020-08-27 18:00:00 35.5 11 Sudoeste 28 Sudoeste 0 -- -- 20
2020-08-27 17:00:00 35.8 16 Sur 28 Sur 0 -- -- 20
2020-08-27 16:00:00 35.6 10 Sur 29 Sudoeste 0 -- -- 22
2020-08-27 15:00:00 35 11 Sudoeste 25 Oeste 0 -- -- 23
2020-08-27 14:00:00 33.7 4 Sudeste 23 Sudoeste 0 -- -- 25
2020-08-27 13:00:00 32.7 9 Sur 18 Sudoeste 0 -- -- 25
2020-08-27 12:00:00 30.5 7 Sur 14 Sudoeste 0 -- -- 28
2020-08-27 11:00:00 28.6 5 Sur 11 Sur 0 -- -- 33
2020-08-27 10:00:00 27.2 5 Este 7 Este 0 -- -- 38
2020-08-27 09:00:00 24.3 3 Nordeste 8 Nordeste 0 -- -- 39
2020-08-27 08:00:00 22.1 4 Norte 12 Norte 0 -- -- 40
2020-08-27 07:00:00 21.1 2 Nordeste 8 Norte 0 -- -- 41
2020-08-27 06:00:00 22.4 4 Norte 9 Norte 0 -- -- 38
2020-08-27 05:00:00 22.6 4 Norte 8 Este 0 -- -- 38
2020-08-27 04:00:00 23.4 4 Este 8 Este 0 -- -- 36
2020-08-27 03:00:00 24.4 5 Sur 7 Sur 0 -- -- 34
2020-08-27 02:00:00 25 3 Sudeste 12 Sur 0 -- -- 33
2020-08-27 01:00:00 26.9 8 Nordeste 20 Norte 0 -- -- 30
2020-08-27 00:00:00 27.8 14 Norte 24 Norte 0 -- -- 29
2020-08-26 23:00:00 27.5 12 Norte 18 Nordeste 0 -- -- 32
2020-08-26 22:00:00 28.7 5 Nordeste 11 Oeste 0 -- -- 25
2020-08-26 21:00:00 30.7 5 Sudoeste 23 Sur 0 -- -- 22
2020-08-26 20:00:00 33.6 14 Sudoeste 33 Sur 0 -- -- 20
2020-08-26 19:00:00 34.4 18 Sudoeste 31 Sudoeste 0 -- -- 21
2020-08-26 18:00:00 35.1 17 Sudoeste 30 Sudoeste 0 -- -- 19
2020-08-26 17:00:00 35.9 12 Sudoeste 36 Sudoeste 0 -- -- 21
2020-08-26 16:00:00 35.7 14 Sudoeste 30 Sudoeste 0 -- -- 21
2020-08-26 15:00:00 34.7 17 Sudoeste 33 Sudoeste 0 -- -- 21
2020-08-26 14:00:00 34 12 Sudoeste 24 Sur 0 -- -- 23
2020-08-26 13:00:00 32.8 9 Sur 23 Sudoeste 0 -- -- 24
2020-08-26 12:00:00 30 5 Sur 12 Sur 0 -- -- 27
2020-08-26 11:00:00 27.8 4 Este 11 Este 0 -- -- 30
2020-08-26 10:00:00 26.2 5 Este 9 Sudeste 0 -- -- 31
2020-08-26 09:00:00 22.7 0 Calma 5 Norte 0 -- -- 42
2020-08-26 08:00:00 20.4 3 Nordeste 10 Nordeste 0 -- -- 41
2020-08-26 07:00:00 21.4 5 Nordeste 10 Nordeste 0 -- -- 40
2020-08-26 06:00:00 22.2 5 Nordeste 11 Nordeste 0 -- -- 38
2020-08-26 05:00:00 23.2 3 Este 13 Nordeste 0 -- -- 30
2020-08-26 04:00:00 23.9 3 Norte 12 Nordeste 0 -- -- 29
2020-08-26 03:00:00 24 3 Norte 10 Sur 0 -- -- 30
2020-08-26 02:00:00 25.9 8 Nordeste 13 Norte 0 -- -- 30
2020-08-26 01:00:00 26.2 4 Noroeste 19 Noroeste 0 -- -- 30
2020-08-26 00:00:00 26.2 12 Nordeste 20 Norte 0 -- -- 31